Terminal Aerodrome Forecast
Issued by NWS Duluth, MN

Home | Current Version | Previous Version | Text Only | Print | Product List | Glossary On
Versions: 1 2 3 4 5 6 7 8 9 10 11 12 13 14 15 16 17 18 19 20 21 22 23 24 25
534
FTUS43 KDLH 182337
TAFINL
TAF
KINL 182337Z 1900/1924 VRB04KT P6SM BKN015
     FM190300 VRB04KT P6SM BKN100
     FM191400 22006KT P6SM OVC090
     FM192000 25008KT P6SM BKN200=

USA.gov is the U.S. government's official web portal to all federal, state and local government web resources and services.